createdAt,value
2019-03-19T00:00:37.880Z,0.00
2019-03-19T00:01:37.869Z,0.00
2019-03-19T00:02:38.335Z,0.00
2019-03-19T00:03:37.869Z,0.00
2019-03-19T00:04:37.836Z,0.00
2019-03-19T00:05:37.824Z,0.00
2019-03-19T00:06:37.858Z,0.00
2019-03-19T00:07:37.810Z,0.00
2019-03-19T00:08:38.322Z,0.00
2019-03-19T00:09:37.800Z,0.00
2019-03-19T00:10:37.770Z,0.00
2019-03-19T00:11:37.759Z,0.00
2019-03-19T00:12:37.766Z,0.00
2019-03-19T00:13:38.338Z,0.00
2019-03-19T00:14:38.334Z,0.00
2019-03-19T00:15:38.321Z,0.00
2019-03-19T00:16:37.707Z,0.00
2019-03-19T00:17:37.703Z,0.00
2019-03-19T00:18:37.685Z,0.00
2019-03-19T00:19:37.670Z,0.00
2019-03-19T00:20:38.320Z,0.00
2019-03-19T00:21:37.652Z,0.00
2019-03-19T00:22:37.655Z,0.00
2019-03-19T00:23:37.638Z,0.00
2019-03-19T00:24:37.617Z,0.00
2019-03-19T00:25:38.357Z,0.00
2019-03-19T00:26:37.612Z,0.00
2019-03-19T00:27:37.584Z,0.00
2019-03-19T00:28:39.063Z,0.00
2019-03-19T00:29:37.565Z,0.00
2019-03-19T00:30:37.556Z,0.00
2019-03-19T00:31:37.560Z,0.00
2019-03-19T00:32:37.532Z,0.00
2019-03-19T00:33:37.833Z,0.00
2019-03-19T00:34:38.323Z,0.00
2019-03-19T00:35:37.503Z,0.00
2019-03-19T00:36:37.504Z,0.00
2019-03-19T00:37:37.478Z,0.00
2019-03-19T00:38:37.478Z,0.00
2019-03-19T00:39:38.326Z,0.00
2019-03-19T00:40:37.445Z,0.00
2019-03-19T00:41:37.445Z,0.00
2019-03-19T00:42:38.323Z,0.00
2019-03-19T00:43:37.861Z,0.00
2019-03-19T00:44:38.323Z,0.00
2019-03-19T00:45:37.391Z,0.00
2019-03-19T00:46:37.394Z,0.00
2019-03-19T00:47:37.367Z,0.00
2019-03-19T00:48:37.835Z,0.00
2019-03-19T00:49:37.349Z,0.00
2019-03-19T00:50:37.334Z,0.00
2019-03-19T00:51:37.339Z,0.00
2019-03-19T00:52:37.313Z,0.00
2019-03-19T00:53:37.311Z,0.00
2019-03-19T00:54:37.303Z,0.00
2019-03-19T00:55:40.970Z,0.00
2019-03-19T00:56:37.280Z,0.00
2019-03-19T00:57:37.254Z,0.00
2019-03-19T00:58:37.256Z,0.00
2019-03-19T00:59:37.243Z,0.00
2019-03-19T01:00:37.235Z,0.00
2019-03-19T01:01:38.888Z,0.00
2019-03-19T01:02:37.202Z,0.00
2019-03-19T01:03:37.205Z,0.00
2019-03-19T01:04:37.822Z,0.00
2019-03-19T01:05:37.822Z,0.00
2019-03-19T01:06:37.165Z,0.00
2019-03-19T01:07:37.147Z,0.00
2019-03-19T01:08:37.144Z,0.00
2019-03-19T01:09:37.134Z,0.00
2019-03-19T01:10:37.824Z,0.00
2019-03-19T01:11:37.104Z,0.00
2019-03-19T01:12:37.093Z,0.00
2019-03-19T01:13:37.082Z,0.00
2019-03-19T01:14:37.081Z,0.00
2019-03-19T01:15:37.060Z,0.00
2019-03-19T01:16:37.046Z,0.00
2019-03-19T01:17:37.825Z,0.00
2019-03-19T01:18:37.040Z,0.00
2019-03-19T01:19:37.028Z,0.00
2019-03-19T01:20:37.824Z,0.00
2019-03-19T01:21:36.993Z,0.00
2019-03-19T01:22:36.988Z,0.00
2019-03-19T01:23:36.973Z,0.00
2019-03-19T01:24:36.997Z,0.00
2019-03-19T01:25:36.954Z,0.00
2019-03-19T01:26:36.938Z,0.00
2019-03-19T01:27:37.823Z,0.00
2019-03-19T01:28:37.823Z,0.00
2019-03-19T01:29:36.918Z,0.00
2019-03-19T01:30:37.825Z,0.00
2019-03-19T01:31:36.883Z,0.00
2019-03-19T01:32:36.880Z,0.00
2019-03-19T01:33:37.827Z,0.00
2019-03-19T01:34:37.339Z,0.00
2019-03-19T01:35:36.906Z,0.00
2019-03-19T01:36:36.836Z,0.00
2019-03-19T01:37:36.817Z,0.00
2019-03-19T01:38:36.806Z,0.00
2019-03-19T01:39:36.816Z,0.00
2019-03-19T01:40:36.780Z,0.00
2019-03-19T01:41:36.772Z,0.00
2019-03-19T01:42:36.763Z,0.00
2019-03-19T01:43:36.752Z,0.00
2019-03-19T01:44:36.750Z,0.00
2019-03-19T01:45:37.328Z,0.00
2019-03-19T01:46:36.744Z,0.00
2019-03-19T01:47:36.708Z,0.00
2019-03-19T01:48:36.697Z,0.00
2019-03-19T01:49:36.707Z,0.00
2019-03-19T01:50:37.324Z,0.00
2019-03-19T01:51:37.326Z,0.00
2019-03-19T01:52:36.651Z,0.00
2019-03-19T01:53:36.637Z,0.00
2019-03-19T01:54:36.645Z,0.00
2019-03-19T01:55:36.629Z,0.00
2019-03-19T01:56:37.344Z,0.00
2019-03-19T01:57:36.604Z,0.00
2019-03-19T01:58:36.585Z,0.00
2019-03-19T01:59:36.576Z,0.00
2019-03-19T02:00:36.579Z,0.00
2019-03-19T02:01:36.571Z,0.00
2019-03-19T02:02:36.542Z,0.00
2019-03-19T02:03:36.537Z,0.00
2019-03-19T02:04:36.523Z,0.00
2019-03-19T02:05:36.843Z,0.00
2019-03-19T02:06:36.509Z,0.00
2019-03-19T02:07:37.331Z,0.00
2019-03-19T02:08:37.328Z,0.00
2019-03-19T02:09:37.331Z,0.00
2019-03-19T02:10:36.462Z,0.00
2019-03-19T02:11:38.290Z,0.00
2019-03-19T02:12:36.447Z,0.00
2019-03-19T02:13:36.426Z,0.00
2019-03-19T02:14:36.408Z,0.00
2019-03-19T02:15:36.408Z,0.00
2019-03-19T02:16:37.341Z,0.00
2019-03-19T02:17:36.378Z,0.00
2019-03-19T02:18:36.366Z,0.00
2019-03-19T02:19:36.358Z,0.00
2019-03-19T02:20:36.839Z,0.00
2019-03-19T02:21:36.361Z,0.00
2019-03-19T02:22:36.322Z,0.00
2019-03-19T02:23:36.830Z,0.00
2019-03-19T02:24:36.297Z,0.00
2019-03-19T02:25:36.342Z,0.00
2019-03-19T02:26:36.295Z,0.00
2019-03-19T02:27:36.268Z,0.00
2019-03-19T02:28:36.257Z,0.00
2019-03-19T02:29:36.248Z,0.00
2019-03-19T02:30:36.257Z,0.00
2019-03-19T02:31:36.238Z,0.00
2019-03-19T02:32:36.226Z,0.00
2019-03-19T02:33:36.255Z,0.00
2019-03-19T02:34:36.216Z,0.00
2019-03-19T02:35:36.839Z,0.00
2019-03-19T02:36:36.189Z,0.00
2019-03-19T02:37:36.172Z,0.00
2019-03-19T02:38:36.151Z,0.00
2019-03-19T02:39:36.136Z,0.00
2019-03-19T02:40:36.140Z,0.00
2019-03-19T02:41:36.128Z,0.00
2019-03-19T02:42:36.841Z,0.00
2019-03-19T02:43:36.098Z,0.00
2019-03-19T02:44:36.095Z,0.00
2019-03-19T02:45:36.101Z,0.00
2019-03-19T02:46:36.342Z,0.00
2019-03-19T02:47:36.832Z,0.00
2019-03-19T02:48:36.051Z,0.00
2019-03-19T02:49:36.029Z,0.00
2019-03-19T02:50:36.832Z,0.00
2019-03-19T02:51:36.020Z,0.00
2019-03-19T02:52:36.833Z,0.00
2019-03-19T02:53:35.983Z,0.00
2019-03-19T02:54:35.982Z,0.00
2019-03-19T02:55:35.964Z,0.00
2019-03-19T02:56:36.006Z,0.00
2019-03-19T02:57:35.950Z,0.00
2019-03-19T02:58:35.933Z,0.00
2019-03-19T02:59:35.925Z,0.00
2019-03-19T03:00:35.914Z,0.00
2019-03-19T03:01:35.932Z,0.00
2019-03-19T03:02:35.919Z,0.00
2019-03-19T03:03:36.841Z,0.00
2019-03-19T03:04:36.833Z,0.00
2019-03-19T03:05:36.837Z,0.00
2019-03-19T03:06:35.848Z,0.00
2019-03-19T03:07:37.534Z,0.00
2019-03-19T03:08:35.822Z,0.00
2019-03-19T03:09:36.333Z,0.00
2019-03-19T03:10:35.815Z,0.00
2019-03-19T03:11:35.861Z,0.00
2019-03-19T03:12:35.789Z,0.00
2019-03-19T03:13:35.760Z,0.00
2019-03-19T03:14:35.754Z,0.00
2019-03-19T03:15:35.738Z,0.00
2019-03-19T03:16:35.736Z,0.00
2019-03-19T03:17:35.862Z,0.00
2019-03-19T03:18:35.709Z,0.00
2019-03-19T03:19:36.334Z,0.00
2019-03-19T03:20:35.690Z,0.00
2019-03-19T03:21:36.332Z,0.00
2019-03-19T03:22:35.847Z,0.00
2019-03-19T03:23:35.653Z,0.00
2019-03-19T03:24:35.645Z,0.00
2019-03-19T03:25:35.631Z,0.00
2019-03-19T03:26:46.982Z,0.00
2019-03-19T03:27:35.643Z,0.00
2019-03-19T03:28:35.642Z,0.00
2019-03-19T03:29:36.334Z,0.00
2019-03-19T03:30:36.331Z,0.00
2019-03-19T03:31:35.566Z,0.00
2019-03-19T03:32:35.575Z,0.00
2019-03-19T03:33:36.335Z,0.00
2019-03-19T03:34:36.338Z,0.00
2019-03-19T03:35:35.527Z,0.00
2019-03-19T03:36:35.511Z,0.00
2019-03-19T03:37:35.515Z,0.00
2019-03-19T03:38:35.491Z,0.00
2019-03-19T03:39:35.478Z,0.00
2019-03-19T03:40:35.468Z,0.00
2019-03-19T03:41:35.458Z,0.00
2019-03-19T03:42:35.464Z,0.00
2019-03-19T03:43:36.335Z,0.00
2019-03-19T03:44:35.427Z,0.00
2019-03-19T03:45:35.417Z,0.00
2019-03-19T03:46:35.426Z,0.00
2019-03-19T03:47:35.415Z,0.00
2019-03-19T03:48:35.379Z,0.00
2019-03-19T03:49:36.335Z,0.00
2019-03-19T03:50:35.369Z,0.00
2019-03-19T03:51:35.350Z,0.00
2019-03-19T03:52:35.349Z,0.00
2019-03-19T03:53:35.348Z,0.00
2019-03-19T03:54:35.836Z,0.00
2019-03-19T03:55:35.834Z,0.00
2019-03-19T03:56:35.327Z,0.00
2019-03-19T03:57:35.323Z,0.00
2019-03-19T03:58:35.299Z,0.00
2019-03-19T03:59:35.258Z,0.00
2019-03-19T04:00:35.942Z,0.00
2019-03-19T04:01:35.238Z,0.00
2019-03-19T04:02:35.221Z,0.00
2019-03-19T04:03:35.240Z,0.00
2019-03-19T04:04:35.835Z,0.00
2019-03-19T04:05:35.838Z,0.00
2019-03-19T04:06:35.187Z,0.00
2019-03-19T04:07:35.169Z,0.00
2019-03-19T04:08:35.176Z,0.00
2019-03-19T04:09:35.145Z,0.00
2019-03-19T04:10:35.150Z,0.00
2019-03-19T04:11:35.127Z,0.00
2019-03-19T04:12:35.837Z,0.00
2019-03-19T04:13:35.134Z,0.00
2019-03-19T04:14:35.094Z,0.00
2019-03-19T04:15:35.080Z,0.00
2019-03-19T04:16:35.072Z,0.00
2019-03-19T04:17:35.065Z,0.00
2019-03-19T04:18:35.076Z,0.00
2019-03-19T04:19:35.042Z,0.00
2019-03-19T04:20:35.842Z,0.00
2019-03-19T04:21:35.024Z,0.00
2019-03-19T04:22:35.014Z,0.00
2019-03-19T04:23:35.352Z,0.00
2019-03-19T04:24:34.983Z,0.00
2019-03-19T04:25:35.847Z,0.00
2019-03-19T04:26:34.963Z,0.00
2019-03-19T04:27:35.836Z,0.00
2019-03-19T04:28:34.967Z,0.00
2019-03-19T04:29:35.839Z,0.00
2019-03-19T04:30:34.920Z,0.00
2019-03-19T04:31:34.919Z,0.00
2019-03-19T04:32:34.893Z,0.00
2019-03-19T04:33:34.884Z,0.00
2019-03-19T04:34:35.354Z,0.00
2019-03-19T04:35:34.870Z,0.00
2019-03-19T04:36:34.849Z,0.00
2019-03-19T04:37:34.839Z,0.00
2019-03-19T04:38:34.826Z,0.00
2019-03-19T04:39:34.848Z,0.00
2019-03-19T04:40:34.809Z,0.00
2019-03-19T04:41:34.798Z,0.00
2019-03-19T04:42:34.800Z,0.00
2019-03-19T04:43:35.337Z,0.00
2019-03-19T04:44:34.779Z,0.00
2019-03-19T04:45:35.336Z,0.00
2019-03-19T04:46:34.741Z,0.00
2019-03-19T04:47:34.732Z,0.00
2019-03-19T04:48:34.744Z,0.00
2019-03-19T04:49:34.859Z,0.00
2019-03-19T04:50:34.698Z,0.00
2019-03-19T04:51:34.689Z,0.00
2019-03-19T04:52:35.336Z,0.00
2019-03-19T04:53:34.669Z,0.00
2019-03-19T04:54:34.669Z,0.00
2019-03-19T04:55:34.646Z,0.00
2019-03-19T04:56:35.346Z,0.00
2019-03-19T04:57:35.356Z,0.00
2019-03-19T04:58:34.615Z,0.00
2019-03-19T04:59:34.856Z,0.00
2019-03-19T05:00:34.592Z,0.00
2019-03-19T05:01:34.584Z,0.00
2019-03-19T05:02:35.346Z,0.00
2019-03-19T05:03:35.341Z,0.00
2019-03-19T05:04:34.563Z,0.00
2019-03-19T05:05:34.539Z,0.00
2019-03-19T05:06:34.528Z,0.00
2019-03-19T05:07:34.519Z,0.00
2019-03-19T05:08:34.508Z,0.00
2019-03-19T05:09:34.497Z,0.00
2019-03-19T05:10:34.494Z,0.00
2019-03-19T05:11:34.472Z,0.00
2019-03-19T05:12:34.466Z,0.00
2019-03-19T05:13:34.454Z,0.00
2019-03-19T05:14:34.437Z,0.00
2019-03-19T05:15:34.441Z,0.00
2019-03-19T05:16:35.341Z,0.00
2019-03-19T05:17:35.342Z,0.00
2019-03-19T05:18:34.404Z,0.00
2019-03-19T05:19:35.342Z,0.00
2019-03-19T05:20:34.874Z,0.00
2019-03-19T05:21:34.377Z,0.00
2019-03-19T05:22:34.355Z,0.00
2019-03-19T05:23:35.341Z,0.00
2019-03-19T05:24:34.334Z,0.00
2019-03-19T05:25:34.333Z,0.00
2019-03-19T05:26:34.326Z,0.00
2019-03-19T05:27:37.645Z,0.00
2019-03-19T05:28:34.290Z,0.00
2019-03-19T05:29:34.282Z,0.00
2019-03-19T05:30:34.284Z,0.00
2019-03-19T05:31:34.262Z,0.00
2019-03-19T05:32:34.248Z,0.00
2019-03-19T05:33:34.236Z,0.00
2019-03-19T05:34:34.232Z,0.00
2019-03-19T05:35:34.230Z,0.00
2019-03-19T05:36:34.205Z,0.00
2019-03-19T05:37:34.219Z,0.00
2019-03-19T05:38:34.845Z,0.00
2019-03-19T05:39:34.203Z,0.00
2019-03-19T05:40:34.177Z,0.00
2019-03-19T05:41:34.153Z,0.00
2019-03-19T05:42:34.143Z,0.00
2019-03-19T05:43:34.843Z,0.00
2019-03-19T05:44:34.850Z,0.00
2019-03-19T05:45:34.362Z,0.00
2019-03-19T05:46:34.845Z,0.00
2019-03-19T05:47:37.503Z,0.00
2019-03-19T05:48:34.075Z,0.00
2019-03-19T05:49:34.068Z,0.00
2019-03-19T05:50:34.372Z,0.00
2019-03-19T05:51:34.046Z,0.00
2019-03-19T05:52:34.033Z,0.00
2019-03-19T05:53:34.026Z,0.00
2019-03-19T05:54:34.027Z,0.00
2019-03-19T05:55:34.410Z,0.00
2019-03-19T05:56:33.990Z,0.00
2019-03-19T05:57:33.975Z,0.00
2019-03-19T05:58:33.982Z,0.00
2019-03-19T05:59:33.972Z,0.00
2019-03-19T06:00:33.969Z,0.00
2019-03-19T06:01:34.849Z,0.00
2019-03-19T06:02:33.928Z,0.00
2019-03-19T06:03:33.916Z,0.00
2019-03-19T06:04:33.911Z,0.00
2019-03-19T06:05:33.909Z,0.00
2019-03-19T06:06:34.363Z,0.00
2019-03-19T06:07:33.870Z,0.00
2019-03-19T06:08:33.865Z,0.00
2019-03-19T06:09:33.851Z,0.00
2019-03-19T06:10:33.843Z,0.00
2019-03-19T06:11:33.839Z,0.00
2019-03-19T06:12:33.815Z,0.00
2019-03-19T06:13:34.345Z,0.00
2019-03-19T06:14:34.344Z,0.00
2019-03-19T06:15:33.786Z,0.00
2019-03-19T06:16:33.789Z,0.00
2019-03-19T06:17:33.759Z,0.00
2019-03-19T06:18:35.508Z,0.00
2019-03-19T06:19:33.738Z,0.00
2019-03-19T06:20:33.729Z,0.00
2019-03-19T06:21:33.858Z,0.00
2019-03-19T06:22:33.705Z,0.00
2019-03-19T06:23:34.346Z,0.00
2019-03-19T06:24:33.683Z,0.00
2019-03-19T06:25:33.737Z,0.00
2019-03-19T06:26:33.869Z,0.00
2019-03-19T06:27:34.351Z,0.00
2019-03-19T06:28:35.578Z,0.00
2019-03-19T06:29:33.640Z,0.00
2019-03-19T06:30:33.619Z,0.00
2019-03-19T06:31:33.663Z,0.00
2019-03-19T06:32:33.600Z,0.00
2019-03-19T06:33:33.589Z,0.00
2019-03-19T06:34:34.357Z,0.00
2019-03-19T06:35:34.377Z,0.00
2019-03-19T06:36:33.560Z,0.00
2019-03-19T06:37:33.544Z,0.00
2019-03-19T06:38:33.538Z,0.00
2019-03-19T06:39:33.532Z,0.00
2019-03-19T06:40:33.512Z,0.00
2019-03-19T06:41:33.513Z,0.00
2019-03-19T06:42:33.488Z,0.00
2019-03-19T06:43:33.480Z,0.00
2019-03-19T06:44:33.465Z,0.00
2019-03-19T06:45:34.346Z,0.00
2019-03-19T06:46:33.468Z,0.00
2019-03-19T06:47:33.432Z,0.00
2019-03-19T06:48:33.425Z,0.00
2019-03-19T06:49:33.412Z,0.00
2019-03-19T06:50:44.446Z,0.00
2019-03-19T06:51:33.396Z,0.00
2019-03-19T06:52:33.866Z,0.00
2019-03-19T06:53:33.366Z,0.00
2019-03-19T06:54:34.350Z,0.00
2019-03-19T06:55:33.345Z,0.00
2019-03-19T06:56:33.866Z,0.00
2019-03-19T06:57:39.228Z,0.00
2019-03-19T06:58:33.326Z,0.00
2019-03-19T06:59:33.852Z,0.00
2019-03-19T07:00:33.866Z,0.00
2019-03-19T07:01:33.279Z,0.00
2019-03-19T07:02:33.299Z,0.00
2019-03-19T07:03:33.263Z,0.00
2019-03-19T07:04:33.248Z,0.00
2019-03-19T07:05:33.235Z,0.00
2019-03-19T07:06:33.242Z,0.00
2019-03-19T07:07:33.362Z,0.00
2019-03-19T07:08:33.851Z,0.00
2019-03-19T07:09:33.194Z,16.88
2019-03-19T07:10:33.182Z,16.88
2019-03-19T07:11:33.176Z,22.50
2019-03-19T07:12:33.175Z,22.50
2019-03-19T07:13:33.150Z,33.75
2019-03-19T07:14:33.184Z,56.25
2019-03-19T07:15:33.126Z,78.75
2019-03-19T07:16:33.130Z,101.25
2019-03-19T07:17:33.371Z,118.12
2019-03-19T07:18:33.927Z,129.38
2019-03-19T07:19:33.081Z,135.00
2019-03-19T07:20:33.868Z,146.25
2019-03-19T07:21:33.063Z,140.62
2019-03-19T07:22:33.085Z,129.38
2019-03-19T07:23:33.041Z,123.75
2019-03-19T07:24:33.033Z,0.00
2019-03-19T07:25:33.035Z,0.00
2019-03-19T07:26:33.007Z,0.00
2019-03-19T07:27:33.371Z,0.00
2019-03-19T07:28:32.987Z,0.00
2019-03-19T07:29:33.866Z,0.00
2019-03-19T07:30:32.975Z,0.00
2019-03-19T07:31:32.954Z,0.00
2019-03-19T07:32:33.366Z,0.00
2019-03-19T07:33:32.931Z,0.00
2019-03-19T07:34:32.923Z,0.00
2019-03-19T07:35:32.923Z,0.00
2019-03-19T07:36:33.856Z,0.00
2019-03-19T07:37:32.888Z,0.00
2019-03-19T07:38:33.520Z,0.00
2019-03-19T07:39:32.872Z,0.00
2019-03-19T07:40:32.869Z,0.00
2019-03-19T07:41:33.362Z,0.00
2019-03-19T07:42:32.843Z,0.00
2019-03-19T07:43:32.836Z,0.00
2019-03-19T07:44:32.812Z,0.00
2019-03-19T07:45:32.813Z,0.00
2019-03-19T07:46:32.796Z,0.00
2019-03-19T07:47:32.782Z,0.00
2019-03-19T07:48:32.865Z,0.00
2019-03-19T07:49:32.760Z,0.00
2019-03-19T07:50:33.353Z,0.00
2019-03-19T07:51:32.755Z,0.00
2019-03-19T07:52:32.736Z,0.00
2019-03-19T07:53:32.860Z,0.00
2019-03-19T07:54:32.705Z,0.00
2019-03-19T07:55:33.362Z,0.00
2019-03-19T07:56:32.685Z,0.00
2019-03-19T07:57:32.676Z,0.00
2019-03-19T07:58:44.494Z,0.00
2019-03-19T07:59:32.662Z,0.00
2019-03-19T08:00:32.643Z,0.00
2019-03-19T08:01:32.720Z,0.00
2019-03-19T08:02:32.620Z,0.00
2019-03-19T08:03:32.875Z,0.00
2019-03-19T08:04:33.414Z,0.00
2019-03-19T08:05:33.608Z,0.00
2019-03-19T08:06:33.423Z,0.00
2019-03-19T08:07:32.566Z,0.00
2019-03-19T08:08:32.562Z,0.00
2019-03-19T08:09:32.601Z,0.00
2019-03-19T08:10:32.558Z,0.00
2019-03-19T08:11:32.535Z,0.00
2019-03-19T08:12:33.657Z,0.00
2019-03-19T08:13:32.512Z,0.00
2019-03-19T08:14:32.493Z,0.00
2019-03-19T08:15:32.496Z,0.00
2019-03-19T08:16:32.473Z,0.00
2019-03-19T08:17:32.463Z,0.00
2019-03-19T08:18:32.475Z,0.00
2019-03-19T08:19:32.435Z,0.00
2019-03-19T08:20:33.368Z,0.00
2019-03-19T08:21:32.421Z,0.00
2019-03-19T08:22:33.370Z,0.00
2019-03-19T08:23:32.393Z,0.00
2019-03-19T08:24:32.403Z,0.00
2019-03-19T08:25:32.385Z,0.00
2019-03-19T08:26:32.410Z,0.00
2019-03-19T08:27:32.872Z,0.00
2019-03-19T08:28:33.801Z,0.00
2019-03-19T08:29:34.609Z,0.00
2019-03-19T08:30:32.349Z,0.00
2019-03-19T08:31:32.854Z,0.00
2019-03-19T08:32:32.858Z,0.00
2019-03-19T08:33:32.284Z,0.00
2019-03-19T08:34:32.385Z,0.00
2019-03-19T08:35:32.882Z,0.00
2019-03-19T08:36:32.258Z,0.00
2019-03-19T08:37:32.240Z,0.00
2019-03-19T08:38:32.230Z,0.00
2019-03-19T08:39:32.258Z,0.00
2019-03-19T08:40:32.873Z,0.00
2019-03-19T08:41:32.193Z,0.00
2019-03-19T08:42:32.887Z,0.00
2019-03-19T08:43:32.183Z,0.00
2019-03-19T08:44:32.173Z,0.00
2019-03-19T08:45:32.224Z,0.00
2019-03-19T08:46:32.149Z,0.00
2019-03-19T08:47:32.132Z,0.00
2019-03-19T08:48:32.140Z,0.00
2019-03-19T08:49:32.120Z,0.00
2019-03-19T08:50:32.101Z,0.00
2019-03-19T08:51:32.855Z,0.00
2019-03-19T08:52:32.082Z,0.00
2019-03-19T08:53:32.863Z,0.00
2019-03-19T08:54:32.613Z,0.00
2019-03-19T08:55:32.045Z,0.00
2019-03-19T08:56:32.034Z,0.00
2019-03-19T08:57:32.023Z,0.00
2019-03-19T08:58:32.013Z,0.00
2019-03-19T08:59:32.013Z,0.00
2019-03-19T09:00:31.997Z,0.00
2019-03-19T09:01:32.870Z,0.00
2019-03-19T09:02:31.971Z,0.00
2019-03-19T09:03:31.960Z,0.00
2019-03-19T09:04:32.857Z,0.00
2019-03-19T09:05:31.982Z,0.00
2019-03-19T09:06:31.926Z,0.00
2019-03-19T09:07:31.916Z,0.00
2019-03-19T09:08:31.907Z,0.00
2019-03-19T09:09:32.857Z,0.00
2019-03-19T09:10:32.370Z,0.00
2019-03-19T09:11:32.857Z,0.00
2019-03-19T09:12:31.896Z,0.00
2019-03-19T09:13:31.850Z,0.00
2019-03-19T09:14:31.860Z,0.00
2019-03-19T09:15:31.862Z,0.00
2019-03-19T09:16:32.367Z,0.00
2019-03-19T09:17:31.806Z,0.00
2019-03-19T09:18:31.800Z,0.00
2019-03-19T09:19:31.785Z,0.00
2019-03-19T09:20:31.790Z,0.00
2019-03-19T09:21:31.781Z,0.00
2019-03-19T09:22:31.752Z,0.00
2019-03-19T09:23:33.347Z,0.00
2019-03-19T09:24:32.357Z,0.00
2019-03-19T09:25:31.729Z,0.00
2019-03-19T09:26:31.732Z,0.00
2019-03-19T09:27:31.705Z,0.00
2019-03-19T09:28:32.386Z,0.00
2019-03-19T09:29:31.681Z,0.00
2019-03-19T09:30:31.677Z,0.00
2019-03-19T09:31:31.707Z,0.00
2019-03-19T09:32:31.649Z,0.00
2019-03-19T09:33:31.631Z,0.00
2019-03-19T09:34:32.367Z,0.00
2019-03-19T09:35:31.619Z,0.00
2019-03-19T09:36:31.601Z,0.00
2019-03-19T09:37:31.588Z,0.00
2019-03-19T09:38:32.401Z,0.00
2019-03-19T09:39:31.568Z,0.00
2019-03-19T09:40:31.576Z,0.00
2019-03-19T09:41:32.374Z,0.00
2019-03-19T09:42:31.539Z,0.00
2019-03-19T09:43:32.360Z,0.00
2019-03-19T09:44:31.521Z,0.00
2019-03-19T09:45:31.545Z,0.00
2019-03-19T09:46:31.492Z,0.00
2019-03-19T09:47:31.479Z,0.00
2019-03-19T09:48:32.385Z,0.00
2019-03-19T09:49:31.471Z,0.00
2019-03-19T09:50:32.384Z,0.00
2019-03-19T09:51:31.873Z,0.00
2019-03-19T09:52:31.424Z,0.00
2019-03-19T09:53:31.416Z,0.00
2019-03-19T09:54:32.374Z,0.00
2019-03-19T09:55:31.392Z,0.00
2019-03-19T09:56:31.390Z,0.00
2019-03-19T09:57:31.373Z,0.00
2019-03-19T09:58:31.374Z,0.00
2019-03-19T09:59:31.349Z,0.00
2019-03-19T10:00:31.354Z,0.00
2019-03-19T10:01:31.374Z,0.00
2019-03-19T10:02:31.892Z,0.00
2019-03-19T10:03:31.315Z,0.00
2019-03-19T10:04:31.880Z,0.00
2019-03-19T10:05:31.284Z,0.00
2019-03-19T10:06:31.373Z,0.00
2019-03-19T10:07:31.861Z,0.00
2019-03-19T10:08:31.252Z,0.00
2019-03-19T10:09:31.245Z,0.00
2019-03-19T10:10:31.256Z,0.00
2019-03-19T10:11:31.377Z,0.00
2019-03-19T10:12:31.208Z,0.00
2019-03-19T10:13:31.198Z,0.00
2019-03-19T10:14:31.182Z,0.00
2019-03-19T10:15:31.175Z,0.00
2019-03-19T10:16:31.379Z,0.00
2019-03-19T10:17:31.162Z,0.00
2019-03-19T10:18:31.140Z,0.00
2019-03-19T10:19:31.860Z,0.00
2019-03-19T10:20:31.868Z,0.00
2019-03-19T10:21:31.386Z,0.00
2019-03-19T10:22:31.863Z,0.00
2019-03-19T10:23:31.085Z,0.00
2019-03-19T10:24:31.883Z,0.00
2019-03-19T10:25:31.090Z,0.00
2019-03-19T10:26:31.378Z,0.00
2019-03-19T10:27:31.882Z,0.00
2019-03-19T10:28:31.043Z,0.00
2019-03-19T10:29:38.139Z,0.00
2019-03-19T10:30:31.079Z,0.00
2019-03-19T10:31:31.024Z,0.00
2019-03-19T10:32:31.396Z,0.00
2019-03-19T10:33:30.991Z,0.00
2019-03-19T10:34:30.967Z,0.00
2019-03-19T10:35:31.869Z,0.00
2019-03-19T10:36:30.942Z,0.00
2019-03-19T10:37:30.954Z,0.00
2019-03-19T10:38:30.920Z,0.00
2019-03-19T10:39:30.931Z,0.00
2019-03-19T10:40:30.908Z,0.00
2019-03-19T10:41:30.889Z,0.00
2019-03-19T10:42:30.908Z,0.00
2019-03-19T10:43:30.866Z,0.00
2019-03-19T10:44:30.861Z,0.00
2019-03-19T10:45:30.858Z,0.00
2019-03-19T10:46:30.852Z,0.00
2019-03-19T10:47:30.830Z,0.00
2019-03-19T10:48:31.366Z,0.00
2019-03-19T10:49:31.365Z,0.00
2019-03-19T10:50:30.791Z,0.00
2019-03-19T10:51:30.779Z,0.00
2019-03-19T10:52:30.785Z,0.00
2019-03-19T10:53:30.756Z,0.00
2019-03-19T10:54:30.775Z,0.00
2019-03-19T10:55:30.734Z,0.00
2019-03-19T10:56:30.740Z,0.00
2019-03-19T10:57:30.726Z,0.00
2019-03-19T10:58:31.366Z,0.00
2019-03-19T10:59:30.691Z,0.00
2019-03-19T11:00:30.699Z,0.00
2019-03-19T11:01:30.680Z,0.00
2019-03-19T11:02:30.686Z,0.00
2019-03-19T11:03:31.373Z,0.00
2019-03-19T11:04:30.653Z,0.00
2019-03-19T11:05:30.623Z,0.00
2019-03-19T11:06:31.363Z,0.00
2019-03-19T11:07:30.609Z,0.00
2019-03-19T11:08:31.409Z,0.00
2019-03-19T11:09:30.578Z,0.00
2019-03-19T11:10:30.573Z,0.00
2019-03-19T11:11:31.366Z,0.00
2019-03-19T11:12:30.558Z,0.00
2019-03-19T11:13:31.367Z,0.00
2019-03-19T11:14:30.533Z,0.00
2019-03-19T11:15:31.824Z,0.00
2019-03-19T11:16:30.506Z,0.00
2019-03-19T11:17:30.915Z,0.00
2019-03-19T11:18:30.490Z,0.00
2019-03-19T11:19:30.477Z,0.00
2019-03-19T11:20:30.468Z,0.00
2019-03-19T11:21:31.361Z,0.00
2019-03-19T11:22:30.482Z,0.00
2019-03-19T11:23:30.453Z,0.00
2019-03-19T11:24:31.374Z,0.00
2019-03-19T11:25:30.417Z,0.00
2019-03-19T11:26:30.408Z,0.00
2019-03-19T11:27:30.397Z,0.00
2019-03-19T11:28:30.386Z,0.00
2019-03-19T11:29:30.361Z,0.00
2019-03-19T11:30:30.369Z,0.00
2019-03-19T11:31:30.341Z,0.00
2019-03-19T11:32:30.329Z,0.00
2019-03-19T11:33:30.344Z,0.00
2019-03-19T11:34:30.307Z,0.00
2019-03-19T11:35:30.300Z,0.00
2019-03-19T11:36:30.286Z,0.00
2019-03-19T11:37:30.291Z,0.00
2019-03-19T11:38:30.272Z,0.00
2019-03-19T11:39:30.254Z,0.00
2019-03-19T11:40:30.881Z,0.00
2019-03-19T11:41:30.232Z,0.00
2019-03-19T11:42:30.888Z,0.00
2019-03-19T11:43:30.215Z,0.00
2019-03-19T11:44:30.200Z,0.00
2019-03-19T11:45:30.188Z,0.00
2019-03-19T11:46:30.176Z,0.00
2019-03-19T11:47:30.917Z,0.00
2019-03-19T11:48:30.173Z,0.00
2019-03-19T11:49:30.869Z,0.00
2019-03-19T11:50:33.173Z,0.00
2019-03-19T11:51:30.123Z,0.00
2019-03-19T11:52:30.148Z,0.00
2019-03-19T11:53:30.110Z,0.00
2019-03-19T11:54:30.094Z,0.00
2019-03-19T11:55:30.871Z,0.00
2019-03-19T11:56:30.091Z,0.00
2019-03-19T11:57:30.067Z,0.00
2019-03-19T11:58:30.057Z,0.00
2019-03-19T11:59:30.875Z,0.00
2019-03-19T12:00:30.871Z,0.00
2019-03-19T12:01:30.017Z,0.00
2019-03-19T12:02:30.010Z,0.00
2019-03-19T12:03:30.024Z,0.00
2019-03-19T12:04:30.876Z,0.00
2019-03-19T12:05:30.870Z,0.00
2019-03-19T12:06:29.961Z,0.00
2019-03-19T12:07:29.975Z,0.00
2019-03-19T12:08:29.939Z,0.00
2019-03-19T12:09:29.937Z,0.00
2019-03-19T12:10:29.917Z,0.00
2019-03-19T12:11:29.940Z,0.00
2019-03-19T12:12:29.905Z,0.00
2019-03-19T12:13:30.883Z,0.00
2019-03-19T12:14:29.883Z,0.00
2019-03-19T12:15:29.883Z,0.00
2019-03-19T12:16:30.380Z,0.00
2019-03-19T12:17:29.853Z,0.00
2019-03-19T12:18:30.374Z,0.00
2019-03-19T12:19:29.840Z,0.00
2019-03-19T12:20:29.807Z,0.00
2019-03-19T12:21:30.373Z,0.00
2019-03-19T12:22:29.795Z,0.00
2019-03-19T12:23:30.369Z,0.00
2019-03-19T12:24:29.799Z,0.00
2019-03-19T12:25:31.199Z,0.00
2019-03-19T12:26:29.742Z,0.00
2019-03-19T12:27:29.733Z,0.00
2019-03-19T12:28:39.340Z,0.00
2019-03-19T12:29:29.719Z,0.00
2019-03-19T12:30:29.697Z,0.00
2019-03-19T12:31:30.376Z,0.00
2019-03-19T12:32:29.676Z,0.00
2019-03-19T12:33:40.107Z,0.00
2019-03-19T12:34:29.675Z,0.00
2019-03-19T12:35:30.885Z,0.00
2019-03-19T12:36:29.647Z,0.00
2019-03-19T12:37:29.634Z,0.00
2019-03-19T12:38:29.610Z,0.00
2019-03-19T12:39:29.885Z,0.00
2019-03-19T12:40:36.899Z,0.00
2019-03-19T12:41:29.581Z,0.00
2019-03-19T12:42:29.570Z,0.00
2019-03-19T12:43:29.558Z,0.00
2019-03-19T12:44:29.576Z,0.00
2019-03-19T12:45:30.377Z,0.00
2019-03-19T12:46:29.527Z,0.00
2019-03-19T12:47:29.513Z,0.00
2019-03-19T12:48:29.588Z,0.00
2019-03-19T12:49:29.527Z,0.00
2019-03-19T12:50:29.482Z,0.00
2019-03-19T12:51:29.479Z,0.00
2019-03-19T12:52:29.484Z,0.00
2019-03-19T12:53:29.478Z,0.00
2019-03-19T12:54:30.440Z,0.00
2019-03-19T12:55:29.443Z,0.00
2019-03-19T12:56:29.423Z,0.00
2019-03-19T12:57:30.384Z,0.00
2019-03-19T12:58:29.433Z,0.00
2019-03-19T12:59:29.382Z,0.00
2019-03-19T13:00:55.473Z,0.00
2019-03-19T13:01:29.466Z,0.00
2019-03-19T13:02:29.352Z,0.00
2019-03-19T13:03:29.348Z,0.00
2019-03-19T13:04:29.369Z,0.00
2019-03-19T13:05:29.354Z,0.00
2019-03-19T13:06:29.338Z,0.00
2019-03-19T13:07:29.299Z,0.00
2019-03-19T13:08:29.912Z,0.00
2019-03-19T13:09:29.283Z,0.00
2019-03-19T13:10:29.288Z,0.00
2019-03-19T13:11:29.403Z,0.00
2019-03-19T13:12:29.243Z,0.00
2019-03-19T13:13:29.269Z,0.00
2019-03-19T13:14:29.236Z,0.00
2019-03-19T13:15:29.251Z,0.00
2019-03-19T13:16:29.199Z,0.00
2019-03-19T13:17:29.240Z,0.00